Time;durP1;ratioP1;P1;durP2;ratioP2;P2;SDS_P1;SDS_P2;PMS_P1;PMS_P2;Temp;Humidity;BMP_temperature;BMP_pressure;BME280_temperature;BME280_humidity;BME280_pressure;Samples;Min_cycle;Max_cycle;Signal;HPM_P1;HPM_P2
2022/04/01 00:00:44;;;;;;;4.05;1.15;;;1.50;99.90;;;;;;4919500;29;20043;-87
2022/04/01 00:03:12;;;;;;;5.82;1.98;;;1.90;99.90;;;;;;4919372;29;20107;-87
2022/04/01 00:05:39;;;;;;;3.53;1.20;;;1.10;99.90;;;;;;4918895;29;20194;-87
2022/04/01 00:08:05;;;;;;;3.03;0.93;;;1.20;99.90;;;;;;4919352;29;20051;-87
2022/04/01 00:10:30;;;;;;;7.85;1.45;;;1.20;99.90;;;;;;4919204;29;20050;-87
2022/04/01 00:12:56;;;;;;;5.65;1.48;;;1.90;99.90;;;;;;4919111;29;20054;-88
2022/04/01 00:15:22;;;;;;;2.15;1.02;;;1.20;99.90;;;;;;4918809;29;20071;-88
2022/04/01 00:17:48;;;;;;;3.60;1.10;;;1.20;99.90;;;;;;4920153;29;20043;-89
2022/04/01 00:20:14;;;;;;;7.15;1.33;;;1.20;99.90;;;;;;4920187;29;20055;-89
2022/04/01 00:22:41;;;;;;;4.93;1.30;;;1.20;99.90;;;;;;4920231;29;20047;-89
2022/04/01 00:25:07;;;;;;;5.40;1.23;;;1.20;99.90;;;;;;4919445;29;20055;-90
2022/04/01 00:27:33;;;;;;;2.55;1.15;;;1.20;99.90;;;;;;4920320;29;20049;-89
2022/04/01 00:29:59;;;;;;;3.85;1.42;;;1.60;99.90;;;;;;4919799;29;20047;-89
2022/04/01 00:32:25;;;;;;;3.03;1.17;;;1.70;99.90;;;;;;4919898;29;20071;-89
2022/04/01 00:34:52;;;;;;;6.38;1.40;;;1.20;99.90;;;;;;4919885;29;20087;-89
2022/04/01 00:37:17;;;;;;;7.55;1.45;;;1.80;99.90;;;;;;4919702;29;20047;-88
2022/04/01 00:39:44;;;;;;;5.90;1.27;;;1.10;99.90;;;;;;4918942;29;20051;-89
2022/04/01 00:42:11;;;;;;;4.25;1.38;;;1.10;99.90;;;;;;4919964;29;20142;-88
2022/04/01 00:44:38;;;;;;;3.10;1.17;;;1.60;99.90;;;;;;4920077;29;20070;-89
2022/04/01 00:47:07;;;;;;;2.97;1.13;;;1.10;99.90;;;;;;4919824;29;20075;-89
2022/04/01 00:49:33;;;;;;;5.72;1.60;;;1.10;99.90;;;;;;4919999;29;20054;-88
2022/04/01 00:52:01;;;;;;;4.25;1.00;;;1.10;99.90;;;;;;4920721;29;20047;-90
2022/04/01 00:54:28;;;;;;;5.88;1.38;;;1.00;99.90;;;;;;4919809;29;20070;-90
2022/04/01 00:56:54;;;;;;;6.57;1.38;;;1.00;99.90;;;;;;4920225;29;20047;-90
2022/04/01 00:59:21;;;;;;;4.78;1.60;;;1.60;99.90;;;;;;4920056;29;20055;-90
2022/04/01 01:01:49;;;;;;;4.55;1.10;;;1.70;99.90;;;;;;4919661;29;20480;-92
2022/04/01 01:04:17;;;;;;;3.55;1.30;;;1.20;99.90;;;;;;4919694;29;20043;-91
2022/04/01 01:06:45;;;;;;;4.32;1.30;;;1.00;99.90;;;;;;4920130;29;20082;-91
2022/04/01 01:09:12;;;;;;;6.32;1.10;;;1.00;99.90;;;;;;4919360;29;20129;-91
2022/04/01 01:11:38;;;;;;;7.50;1.35;;;1.00;99.90;;;;;;4920386;29;20051;-90
2022/04/01 01:14:08;;;;;;;2.80;1.40;;;1.10;99.90;;;;;;4919117;29;20495;-91
2022/04/01 01:16:36;;;;;;;3.13;1.33;;;1.00;99.90;;;;;;4920500;29;20039;-92
2022/04/01 01:19:05;;;;;;;4.20;1.50;;;1.10;99.90;;;;;;4920071;29;20141;-91
2022/04/01 01:21:32;;;;;;;5.68;1.63;;;1.20;99.90;;;;;;4919780;29;20031;-91
2022/04/01 01:24:01;;;;;;;3.70;1.60;;;1.10;99.90;;;;;;4920667;29;20059;-92
2022/04/01 01:26:27;;;;;;;4.60;1.10;;;1.10;99.90;;;;;;4919698;29;20035;-92
2022/04/01 01:28:56;;;;;;;4.57;1.30;;;1.80;99.90;;;;;;4918454;29;20047;-92
2022/04/01 01:31:21;;;;;;;8.82;1.67;;;1.10;99.90;;;;;;4919541;29;20043;-91
2022/04/01 01:33:49;;;;;;;7.70;1.70;;;1.90;99.90;;;;;;4919587;29;20050;-92
2022/04/01 01:36:14;;;;;;;5.53;1.63;;;1.90;99.90;;;;;;4919343;29;20072;-93
2022/04/01 01:38:40;;;;;;;6.18;1.50;;;1.10;99.90;;;;;;4919474;29;20054;-93
2022/04/01 01:41:05;;;;;;;5.10;1.30;;;1.80;99.90;;;;;;4919424;29;20098;-92
2022/04/01 01:43:31;;;;;;;4.55;1.50;;;1.10;99.90;;;;;;4918653;29;20047;-92
2022/04/01 01:45:57;;;;;;;4.80;1.55;;;1.20;99.90;;;;;;4919101;29;20503;-96
2022/04/01 01:48:24;;;;;;;5.47;1.40;;;1.20;99.90;;;;;;4919030;29;20051;-94
2022/04/01 01:56:18;;;;;;;6.90;1.58;;;1.20;99.90;;;;;;4934535;29;20059;-96
2022/04/01 01:58:44;;;;;;;3.88;1.20;;;1.20;99.90;;;;;;4942982;28;20042;-94
2022/04/01 02:01:10;;;;;;;5.03;1.40;;;1.80;99.90;;;;;;4939160;28;20047;-90
2022/04/01 02:03:36;;;;;;;3.80;1.40;;;1.20;99.90;;;;;;4937791;28;20531;-91
2022/04/01 02:06:03;;;;;;;5.20;1.40;;;1.80;99.90;;;;;;4937919;28;20058;-92
2022/04/01 02:08:30;;;;;;;7.90;1.85;;;2.40;99.90;;;;;;4938731;28;20043;-93
2022/04/01 02:10:56;;;;;;;7.07;1.95;;;1.30;99.90;;;;;;4939320;28;20046;-93
2022/04/01 02:13:23;;;;;;;6.05;1.60;;;1.50;99.90;;;;;;4937566;28;20031;-95
2022/04/01 02:15:49;;;;;;;4.65;1.48;;;1.30;99.90;;;;;;4937656;28;20046;-96
2022/04/01 02:18:15;;;;;;;4.20;1.45;;;1.30;99.90;;;;;;4936983;28;20073;-95
2022/04/01 02:20:41;;;;;;;8.82;1.77;;;1.50;99.90;;;;;;4938274;28;20039;-95
2022/04/01 02:23:09;;;;;;;4.40;1.40;;;1.30;99.90;;;;;;4938066;28;20134;-96
2022/04/01 02:25:36;;;;;;;6.30;1.45;;;1.30;99.90;;;;;;4940858;28;20410;-96
2022/04/01 02:28:02;;;;;;;5.78;1.48;;;1.30;99.90;;;;;;4944611;28;20082;-96
2022/04/01 02:30:29;;;;;;;3.25;1.25;;;1.30;99.90;;;;;;4955887;28;20037;-96
2022/04/01 02:36:39;;;;;;;6.70;1.48;;;1.30;99.90;;;;;;4934699;29;20068;-96
2022/04/01 02:39:12;;;;;;;3.80;1.33;;;1.20;99.90;;;;;;4917585;29;20187;-96
2022/04/01 02:42:35;;;;;;;7.95;1.63;;;1.20;99.90;;;;;;4976118;28;20046;-96
2022/04/01 02:48:32;;;;;;;5.32;1.17;;;1.20;99.90;;;;;;4998631;23;20066;-93
2022/04/01 02:50:58;;;;;;;5.47;1.30;;;1.20;99.90;;;;;;4937419;28;20054;-94
2022/04/01 02:53:24;;;;;;;6.15;1.38;;;1.30;99.90;;;;;;4936394;28;20054;-91
2022/04/01 02:55:50;;;;;;;10.35;1.50;;;1.20;99.90;;;;;;4938406;28;20086;-91
2022/04/01 02:58:16;;;;;;;4.85;1.50;;;1.30;99.90;;;;;;4940778;28;20057;-91
2022/04/01 03:00:45;;;;;;;6.43;1.50;;;1.70;99.90;;;;;;4939424;28;20051;-91
2022/04/01 03:03:14;;;;;;;4.05;1.40;;;1.10;99.90;;;;;;4925635;28;20057;-91
2022/04/01 03:05:43;;;;;;;9.75;1.10;;;0.40;99.90;;;;;;4942112;28;20566;-91
2022/04/01 03:08:17;;;;;;;4.35;1.65;;;1.20;99.90;;;;;;4941082;28;20140;-90
2022/04/01 03:10:48;;;;;;;3.13;1.10;;;1.30;99.90;;;;;;4940971;28;20054;-91
2022/04/01 03:13:15;;;;;;;3.97;1.27;;;1.00;99.90;;;;;;4940084;28;20507;-91
2022/04/01 03:15:41;;;;;;;5.90;1.42;;;2.00;99.90;;;;;;4939537;28;20039;-91
2022/04/01 03:18:09;;;;;;;4.03;1.40;;;1.20;99.90;;;;;;4936662;29;20039;-91
2022/04/01 03:20:35;;;;;;;5.05;1.30;;;1.30;99.90;;;;;;4921546;29;20053;-91
2022/04/01 03:23:04;;;;;;;8.13;1.88;;;1.80;99.90;;;;;;4921845;29;20066;-91
2022/04/01 03:25:32;;;;;;;5.65;1.27;;;1.30;99.90;;;;;;4921451;29;20492;-91
2022/04/01 03:28:01;;;;;;;5.35;1.10;;;1.30;99.90;;;;;;4921008;29;20051;-91
2022/04/01 03:30:27;;;;;;;8.45;1.88;;;1.40;99.90;;;;;;4921086;29;20398;-91
2022/04/01 03:32:54;;;;;;;6.75;1.30;;;1.20;99.90;;;;;;4921658;29;20059;-91
2022/04/01 03:35:20;;;;;;;6.60;1.20;;;1.20;99.90;;;;;;4920611;29;20102;-91
2022/04/01 03:37:49;;;;;;;2.97;1.00;;;2.10;99.90;;;;;;4921365;29;20058;-90
2022/04/01 03:40:15;;;;;;;3.78;1.20;;;1.80;99.90;;;;;;4920584;29;20380;-91
2022/04/01 03:42:44;;;;;;;6.53;1.10;;;1.60;99.90;;;;;;4920443;29;20110;-91
2022/04/01 03:45:11;;;;;;;5.60;1.20;;;2.40;99.90;;;;;;4920097;29;20093;-91
2022/04/01 03:47:49;;;;;;;6.20;1.52;;;1.40;99.90;;;;;;4921011;29;20062;-91
2022/04/01 03:50:23;;;;;;;4.65;1.10;;;0.50;99.90;;;;;;4919567;29;20142;-90
2022/04/01 03:52:54;;;;;;;5.43;1.10;;;1.60;99.90;;;;;;4920613;29;20051;-91
2022/04/01 03:55:35;;;;;;;4.97;0.93;;;1.30;99.90;;;;;;4921671;29;20043;-91
2022/04/01 03:58:10;;;;;;;3.25;1.05;;;1.40;99.90;;;;;;4933650;28;20050;-91
2022/04/01 04:00:41;;;;;;;4.18;1.20;;;1.00;99.90;;;;;;4940114;28;20115;-91
2022/04/01 04:03:09;;;;;;;7.22;1.33;;;0.70;99.90;;;;;;4939478;28;20601;-91
2022/04/01 04:05:38;;;;;;;3.35;1.10;;;1.60;99.90;;;;;;4939412;28;20105;-91
2022/04/01 04:08:11;;;;;;;3.92;1.10;;;1.40;99.90;;;;;;4940981;28;20105;-92
2022/04/01 04:10:37;;;;;;;3.67;0.95;;;0.90;99.90;;;;;;4939928;28;20055;-91
2022/04/01 04:13:06;;;;;;;3.90;1.52;;;1.70;99.90;;;;;;4939633;28;20062;-91
2022/04/01 04:15:43;;;;;;;6.22;1.20;;;2.40;99.90;;;;;;4938681;28;20505;-91
2022/04/01 04:18:15;;;;;;;3.28;1.00;;;1.40;99.90;;;;;;4938230;28;20462;-92
2022/04/01 04:21:05;;;;;;;5.22;1.20;;;2.40;99.90;;;;;;4939132;28;20046;-91
2022/04/01 04:23:43;;;;;;;8.23;1.40;;;1.40;99.90;;;;;;4939134;28;20047;-92
2022/04/01 04:26:35;;;;;;;4.50;1.38;;;2.10;99.90;;;;;;4937709;28;20525;-92
2022/04/01 04:29:08;;;;;;;6.07;1.40;;;1.40;99.90;;;;;;4953706;28;20050;-92
2022/04/01 04:31:38;;;;;;;6.47;1.67;;;2.10;99.90;;;;;;4937146;28;20123;-91
2022/04/01 04:34:09;;;;;;;5.50;1.20;;;1.40;99.90;;;;;;4938297;28;20053;-91
2022/04/01 04:36:38;;;;;;;6.43;1.60;;;1.50;99.90;;;;;;4954107;28;20046;-91
2022/04/01 04:39:06;;;;;;;7.50;1.20;;;2.40;99.90;;;;;;4953481;28;20077;-91
2022/04/01 04:41:33;;;;;;;7.63;1.35;;;1.40;99.90;;;;;;4938695;28;20045;-91
2022/04/01 04:44:00;;;;;;;8.30;1.40;;;1.60;99.90;;;;;;4954762;28;20039;-91
2022/04/01 04:46:27;;;;;;;11.70;1.55;;;1.10;99.90;;;;;;4951945;28;20082;-91
2022/04/01 04:48:59;;;;;;;6.75;1.30;;;0.90;99.90;;;;;;4938098;28;20070;-91
2022/04/01 04:51:31;;;;;;;4.65;1.27;;;1.40;99.90;;;;;;4938077;28;20059;-91
2022/04/01 04:54:02;;;;;;;7.50;1.50;;;1.40;99.90;;;;;;4938167;28;20046;-92
2022/04/01 04:56:32;;;;;;;6.25;1.27;;;2.70;99.90;;;;;;4938564;28;20129;-91
2022/04/01 04:59:01;;;;;;;4.15;1.23;;;2.40;99.90;;;;;;4938378;28;20113;-92
2022/04/01 05:01:54;;;;;;;8.48;1.60;;;1.40;99.90;;;;;;4939679;28;20055;-92
2022/04/01 05:04:22;;;;;;;2.78;1.35;;;1.40;99.90;;;;;;4938557;28;20511;-91
2022/04/01 05:06:59;;;;;;;6.20;0.98;;;1.50;99.90;;;;;;4938468;28;20055;-91
2022/04/01 05:09:40;;;;;;;4.95;1.20;;;1.40;99.90;;;;;;4938966;28;20486;-92
2022/04/01 05:12:16;;;;;;;;;;;1.50;99.90;;;;;;4928626;28;20043;-92
2022/04/01 05:15:02;;;;;;;3.17;1.38;;;1.40;99.90;;;;;;4925411;29;19922;-91
2022/04/01 05:17:45;;;;;;;4.35;1.20;;;1.50;99.90;;;;;;4943009;28;20533;-91
2022/04/01 05:20:15;;;;;;;11.07;1.48;;;1.40;99.90;;;;;;4926608;28;20427;-91
2022/04/01 05:22:47;;;;;;;5.10;1.45;;;1.50;99.90;;;;;;4929385;28;20323;-91
2022/04/01 05:25:18;;;;;;;8.03;1.63;;;2.40;99.90;;;;;;4926268;28;20047;-91
2022/04/01 05:27:49;;;;;;;5.25;1.30;;;1.40;99.90;;;;;;4926482;28;20078;-91
2022/04/01 05:30:17;;;;;;;4.40;1.25;;;1.40;99.90;;;;;;4925808;28;20043;-91
2022/04/01 05:32:58;;;;;;;6.57;1.42;;;1.40;99.90;;;;;;4926102;28;20069;-92
2022/04/01 05:35:32;;;;;;;6.00;1.05;;;1.50;99.90;;;;;;4918758;29;20530;-91
2022/04/01 05:38:00;;;;;;;9.35;1.40;;;1.50;99.90;;;;;;4919553;29;20078;-90
2022/04/01 05:40:28;;;;;;;4.53;1.40;;;2.10;99.90;;;;;;4918678;29;20055;-91
2022/04/01 05:42:57;;;;;;;4.00;1.35;;;0.80;99.90;;;;;;4918572;29;20086;-91
2022/04/01 05:45:28;;;;;;;6.15;1.33;;;2.30;99.90;;;;;;4917845;29;20087;-92
2022/04/01 05:47:58;;;;;;;6.35;1.35;;;1.60;99.90;;;;;;4919840;29;20054;-91
2022/04/01 05:50:30;;;;;;;5.80;1.45;;;1.90;99.90;;;;;;4917013;29;20054;-91
2022/04/01 05:52:56;;;;;;;3.95;1.10;;;3.00;99.90;;;;;;4919483;28;20074;-91
2022/04/01 05:55:27;;;;;;;6.35;1.40;;;2.60;99.90;;;;;;4934344;28;20035;-93
2022/04/01 05:58:17;;;;;;;8.77;1.85;;;1.60;99.90;;;;;;4937379;28;20047;-93
2022/04/01 06:01:20;;;;;;;3.85;1.02;;;1.60;99.90;;;;;;4930595;28;20035;-92
2022/04/01 06:04:34;;;;;;;4.07;1.35;;;0.90;99.90;;;;;;4926798;29;20053;-93
2022/04/01 06:07:13;;;;;;;3.97;1.40;;;1.70;99.90;;;;;;4928922;28;20039;-93
2022/04/01 06:09:43;;;;;;;4.22;1.40;;;1.70;99.90;;;;;;4931291;28;20169;-93
2022/04/01 06:12:36;;;;;;;9.20;1.20;;;1.70;99.90;;;;;;4944160;28;20046;-93
2022/04/01 06:15:16;;;;;;;8.35;1.30;;;1.70;99.90;;;;;;4934746;28;20055;-93
2022/04/01 06:18:08;;;;;;;5.35;1.05;;;1.80;99.90;;;;;;4928486;28;20047;-93
2022/04/01 06:20:37;;;;;;;3.78;1.40;;;1.80;99.90;;;;;;4928660;28;20047;-92
2022/04/01 06:23:23;;;;;;;6.57;1.40;;;1.80;99.90;;;;;;4926331;28;20032;-95
2022/04/01 06:25:58;;;;;;;6.15;1.52;;;2.20;99.90;;;;;;4932557;28;20547;-94
2022/04/01 06:28:27;;;;;;;6.22;1.40;;;1.90;99.90;;;;;;4954687;28;20475;-93
2022/04/01 06:31:18;;;;;;;6.88;1.30;;;1.90;99.90;;;;;;4936033;28;20042;-94
2022/04/01 06:33:58;;;;;;;2.85;1.30;;;1.00;99.90;;;;;;4939052;28;20098;-93
2022/04/01 06:36:35;;;;;;;9.32;1.75;;;2.40;99.90;;;;;;4938063;28;20114;-93
2022/04/01 06:39:10;;;;;;;6.00;1.65;;;2.00;99.90;;;;;;4931609;28;20339;-92
2022/04/01 06:41:48;;;;;;;4.50;1.27;;;1.20;99.90;;;;;;4922565;29;20086;-92
2022/04/01 06:44:14;;;;;;;12.10;2.10;;;2.20;99.90;;;;;;4927011;28;20047;-91
2022/04/01 06:46:43;;;;;;;3.33;1.20;;;3.20;99.90;;;;;;4935689;28;20138;-92
2022/04/01 06:49:11;;;;;;;2.05;1.00;;;3.30;99.90;;;;;;4953945;28;20066;-91
2022/04/01 06:51:39;;;;;;;6.68;1.73;;;2.40;99.90;;;;;;4941316;28;20057;-92
2022/04/01 06:54:13;;;;;;;4.95;1.00;;;3.60;99.90;;;;;;4940944;28;20043;-92
2022/04/01 06:56:41;;;;;;;5.60;1.10;;;1.40;99.90;;;;;;4941089;28;20043;-92
2022/04/01 06:59:07;;;;;;;6.45;1.00;;;2.20;99.90;;;;;;4939781;28;20042;-92
2022/04/01 07:01:48;;;;;;;5.45;1.35;;;3.50;99.90;;;;;;4941256;28;20058;-92
2022/04/01 07:04:17;;;;;;;2.75;0.80;;;3.20;99.90;;;;;;4940396;28;20043;-92
2022/04/01 07:06:46;;;;;;;3.45;1.00;;;2.30;99.90;;;;;;4939276;28;20146;-92
2022/04/01 07:09:18;;;;;;;3.63;1.00;;;1.50;99.90;;;;;;4939303;28;20054;-92
2022/04/01 07:11:47;;;;;;;5.25;1.00;;;2.30;99.90;;;;;;4937649;28;20081;-92
2022/04/01 07:14:17;;;;;;;4.65;1.08;;;3.00;99.90;;;;;;4938445;28;20138;-91
2022/04/01 07:16:43;;;;;;;1.70;0.80;;;1.50;99.90;;;;;;4941610;28;20109;-91
2022/04/01 07:19:10;;;;;;;3.22;1.08;;;1.70;99.90;;;;;;4939685;28;20051;-91
2022/04/01 07:21:36;;;;;;;4.75;1.02;;;2.10;99.90;;;;;;4937576;28;20065;-91
2022/04/01 07:24:06;;;;;;;4.07;1.02;;;2.80;99.90;;;;;;4939236;28;20137;-91
2022/04/01 07:26:49;;;;;;;6.57;1.23;;;2.30;99.90;;;;;;4940812;28;20050;-91
2022/04/01 07:29:18;;;;;;;3.38;1.13;;;2.70;99.90;;;;;;4938888;28;20137;-92
2022/04/01 07:35:07;;;;;;;4.10;1.20;;;2.60;99.90;;;;;;4972113;28;20051;-92
2022/04/01 07:37:45;;;;;;;3.20;1.20;;;2.40;99.90;;;;;;4939619;28;20046;-92
2022/04/01 07:40:14;;;;;;;3.63;1.20;;;2.50;99.90;;;;;;4938838;28;20093;-92
2022/04/01 07:42:42;;;;;;;4.28;1.00;;;2.90;99.90;;;;;;4938050;28;20510;-93
2022/04/01 07:45:19;;;;;;;2.97;1.42;;;3.70;99.90;;;;;;4938591;28;20041;-92
2022/04/01 07:47:49;;;;;;;4.05;1.00;;;2.40;99.90;;;;;;4939499;28;20125;-92
2022/04/01 07:50:22;;;;;;;6.05;1.27;;;1.80;99.90;;;;;;4941850;28;20061;-93
2022/04/01 07:52:56;;;;;;;3.50;1.50;;;2.20;99.90;;;;;;4939164;28;20050;-92
2022/04/01 07:55:29;;;;;;;6.05;1.80;;;3.40;99.90;;;;;;4938849;28;20483;-92
2022/04/01 07:57:57;;;;;;;5.43;1.55;;;2.40;99.90;;;;;;4924142;29;20551;-92
2022/04/01 08:00:29;;;;;;;4.13;1.50;;;2.50;99.90;;;;;;4920705;29;20074;-93
2022/04/01 08:02:55;;;;;;;4.28;1.50;;;2.40;99.90;;;;;;4920317;29;20114;-92
2022/04/01 08:05:31;;;;;;;4.72;1.65;;;2.90;99.90;;;;;;4921800;29;20138;-91
2022/04/01 08:07:57;;;;;;;4.03;1.23;;;2.30;99.90;;;;;;4924910;28;20043;-92
2022/04/01 08:10:29;;;;;;;3.75;1.10;;;3.60;99.90;;;;;;4937896;28;20451;-92
2022/04/01 08:13:05;;;;;;;3.45;1.40;;;2.30;99.90;;;;;;4939990;28;20077;-92
2022/04/01 08:15:45;;;;;;;7.18;1.80;;;2.40;99.90;;;;;;4938752;28;20043;-92
2022/04/01 08:18:11;;;;;;;4.38;1.77;;;3.40;99.90;;;;;;4938213;28;20057;-92
2022/04/01 08:20:45;;;;;;;5.38;1.63;;;3.30;99.90;;;;;;4939929;28;20057;-92
2022/04/01 08:23:12;;;;;;;3.38;1.33;;;3.50;99.90;;;;;;4939307;28;20086;-92
2022/04/01 08:25:45;;;;;;;5.68;1.55;;;2.60;99.90;;;;;;4939729;28;20055;-92
2022/04/01 08:28:12;;;;;;;3.53;1.50;;;3.80;99.90;;;;;;4937344;28;20066;-92
2022/04/01 08:30:41;;;;;;;5.05;1.60;;;2.60;99.90;;;;;;4938376;28;20586;-92
2022/04/01 08:33:07;;;;;;;5.65;1.83;;;2.70;99.90;;;;;;4938969;28;20053;-92
2022/04/01 08:35:37;;;;;;;3.63;1.17;;;2.70;99.90;;;;;;4938970;28;20133;-92
2022/04/01 08:38:05;;;;;;;2.08;1.10;;;4.10;99.90;;;;;;4938675;28;20190;-93
2022/04/01 08:40:33;;;;;;;2.97;1.20;;;2.70;99.90;;;;;;4938606;28;20057;-92
2022/04/01 08:43:05;;;;;;;4.95;1.38;;;1.70;99.90;;;;;;4939160;28;20054;-93
2022/04/01 08:45:38;;;;;;;4.05;1.50;;;3.50;99.90;;;;;;4937452;28;20566;-92
2022/04/01 08:48:11;;;;;;;5.20;1.40;;;3.10;99.90;;;;;;4938347;28;20491;-93
2022/04/01 08:50:47;;;;;;;3.97;1.50;;;2.90;99.90;;;;;;4938989;28;20269;-93
2022/04/01 08:53:19;;;;;;;3.60;1.10;;;3.60;99.90;;;;;;4937536;28;20058;-93
2022/04/01 08:55:51;;;;;;;6.07;1.42;;;3.00;99.90;;;;;;4938477;28;20405;-93
2022/04/01 08:58:24;;;;;;;3.38;1.42;;;3.10;99.90;;;;;;4937976;28;20146;-92
2022/04/01 09:00:58;;;;;;;4.70;1.35;;;3.20;99.90;;;;;;4935260;28;20137;-93
2022/04/01 09:03:26;;;;;;;;;;;2.80;99.90;;;;;;4938590;28;20035;-93
2022/04/01 09:06:02;;;;;;;5.22;1.65;;;3.20;99.90;;;;;;4937997;28;19918;-93
2022/04/01 09:08:41;;;;;;;6.13;1.95;;;4.10;99.90;;;;;;4956883;28;20050;-93
2022/04/01 09:11:18;;;;;;;5.93;1.80;;;3.20;99.90;;;;;;4939026;28;20074;-93
2022/04/01 09:13:49;;;;;;;7.40;2.25;;;2.80;99.90;;;;;;4937768;28;20039;-92
2022/04/01 09:16:24;;;;;;;4.60;2.10;;;2.40;99.90;;;;;;4938731;28;20135;-92
2022/04/01 09:18:59;;;;;;;5.70;2.20;;;4.90;99.90;;;;;;4938044;28;20050;-92
2022/04/01 09:21:31;;;;;;;6.07;2.58;;;3.20;99.90;;;;;;4937989;28;20133;-93
2022/04/01 09:24:12;;;;;;;10.75;2.45;;;3.40;99.90;;;;;;4938727;28;20558;-93
2022/04/01 09:26:40;;;;;;;8.73;2.50;;;3.60;99.90;;;;;;4941535;28;20085;-92
2022/04/01 09:29:08;;;;;;;6.35;1.90;;;3.50;99.90;;;;;;4933072;28;20491;-92
2022/04/01 09:31:41;;;;;;;7.72;1.90;;;4.30;99.90;;;;;;4938245;28;20046;-93
2022/04/01 09:34:32;;;;;;;4.13;1.77;;;4.10;99.90;;;;;;4937400;28;20030;-91
2022/04/01 09:37:04;;;;;;;7.05;1.60;;;3.50;99.90;;;;;;4937080;28;20054;-92
2022/04/01 09:39:38;;;;;;;5.18;1.80;;;3.80;99.90;;;;;;4937166;28;20053;-92
2022/04/01 09:42:18;;;;;;;5.75;1.38;;;4.20;99.90;;;;;;4937221;28;20069;-92
2022/04/01 09:44:43;;;;;;;5.35;1.45;;;3.80;99.90;;;;;;4935843;28;20046;-92
2022/04/01 09:47:16;;;;;;;3.95;1.80;;;3.80;99.90;;;;;;4936774;28;20163;-92
2022/04/01 09:49:45;;;;;;;;;;;5.30;99.90;;;;;;4936349;28;20133;-92
2022/04/01 09:52:15;;;;;;;5.85;1.73;;;4.20;99.90;;;;;;4936263;28;20393;-92
2022/04/01 09:54:55;;;;;;;6.18;1.50;;;4.40;99.90;;;;;;4933337;28;20109;-93
2022/04/01 09:57:23;;;;;;;7.40;1.77;;;3.50;99.90;;;;;;4936451;28;20057;-92
2022/04/01 10:00:03;;;;;;;3.25;1.60;;;4.10;99.90;;;;;;4932874;28;20045;-92
2022/04/01 10:02:31;;;;;;;4.03;1.45;;;4.20;99.90;;;;;;4927887;28;20054;-92
2022/04/01 10:05:00;;;;;;;6.18;1.80;;;4.10;99.90;;;;;;4938533;28;20070;-92
2022/04/01 10:07:35;;;;;;;4.50;1.85;;;4.30;99.90;;;;;;4940757;28;20054;-93
2022/04/01 10:10:04;;;;;;;4.80;1.77;;;4.50;99.90;;;;;;4929641;28;20082;-93
2022/04/01 10:12:40;;;;;;;3.85;1.80;;;5.30;99.90;;;;;;4941560;28;20051;-93
2022/04/01 10:15:08;;;;;;;3.45;1.67;;;4.70;99.90;;;;;;4940214;28;20054;-92
2022/04/01 10:17:40;;;;;;;7.80;1.77;;;4.80;99.90;;;;;;4941227;28;20467;-92
2022/04/01 10:20:13;;;;;;;5.95;1.85;;;4.00;99.90;;;;;;4940803;28;20042;-92
2022/04/01 10:22:50;;;;;;;7.38;2.10;;;4.90;99.90;;;;;;4941037;28;20050;-93
2022/04/01 10:25:46;;;;;;;4.30;2.00;;;5.80;99.90;;;;;;4940947;28;20056;-93
2022/04/01 10:28:22;;;;;;;6.90;1.70;;;5.00;99.90;;;;;;4941119;28;20043;-93
2022/04/01 10:30:57;;;;;;;6.25;1.90;;;5.10;99.90;;;;;;4939566;28;20047;-93
2022/04/01 10:33:36;;;;;;;5.75;2.08;;;5.10;99.90;;;;;;4940889;28;20058;-92
2022/04/01 10:36:26;;;;;;;5.30;1.77;;;5.40;99.90;;;;;;4935624;28;20073;-93
2022/04/01 10:39:07;;;;;;;7.80;2.05;;;4.50;99.90;;;;;;4922207;29;20128;-92
2022/04/01 10:41:39;;;;;;;8.10;2.53;;;5.20;99.90;;;;;;4938149;29;20039;-92
2022/04/01 10:44:07;;;;;;;5.43;1.92;;;5.20;99.90;;;;;;4921754;28;20150;-94
2022/04/01 10:46:57;;;;;;;6.82;2.28;;;4.40;99.90;;;;;;4950139;29;20047;-95
2022/04/01 10:52:30;;;;;;;6.55;2.53;;;4.90;99.90;;;;;;4943869;28;20117;-96
2022/04/01 10:55:22;;;;;;;7.47;2.45;;;4.90;99.90;;;;;;4949521;28;20055;-94
2022/04/01 10:58:12;;;;;;;7.20;2.22;;;4.80;99.90;;;;;;4953432;29;20035;-95
2022/04/01 11:00:54;;;;;;;6.13;2.00;;;4.90;99.90;;;;;;4951350;28;20054;-93
2022/04/01 11:03:24;;;;;;;7.05;2.13;;;4.80;99.90;;;;;;4959616;28;20043;-94
2022/04/01 11:06:31;;;;;;;;;;;;;;;;;;;;;
2022/04/01 11:09:39;;;;;;;7.10;2.47;;;5.70;99.90;;;;;;4955430;28;20117;-94
2022/04/01 11:12:34;;;;;;;8.80;2.13;;;5.30;99.90;;;;;;4934235;29;20070;-95
2022/04/01 11:15:21;;;;;;;4.88;1.88;;;5.50;99.90;;;;;;4931946;28;20170;-93
2022/04/01 11:18:03;;;;;;;8.27;2.03;;;5.70;99.90;;;;;;4941177;28;20137;-95
2022/04/01 11:20:40;;;;;;;7.87;1.90;;;5.40;99.90;;;;;;4939961;28;20050;-94
2022/04/01 11:23:16;;;;;;;3.38;1.52;;;5.50;99.90;;;;;;4940465;28;20149;-95
2022/04/01 11:26:44;;;;;;;7.32;1.88;;;6.20;99.90;;;;;;4941728;28;20047;-96
2022/04/01 11:29:39;;;;;;;8.40;2.20;;;6.00;99.90;;;;;;4887651;28;20063;-96
2022/04/01 11:34:00;;;;;;;5.75;1.60;;;5.70;99.90;;;;;;4937723;29;20054;-95
2022/04/01 11:36:46;;;;;;;3.72;1.30;;;6.50;99.90;;;;;;4904589;28;20153;-95
2022/04/01 11:39:36;;;;;;;10.05;1.60;;;5.60;99.90;;;;;;4939548;28;20546;-96
2022/04/01 11:49:04;;;;;;;4.75;1.15;;;5.70;99.90;;;;;;4953955;28;20075;-96
2022/04/01 11:51:39;;;;;;;2.38;0.95;;;6.20;99.90;;;;;;4941234;28;20165;-96
2022/04/01 11:54:22;;;;;;;3.58;1.10;;;6.20;99.90;;;;;;4938141;28;20074;-95
2022/04/01 11:56:59;;;;;;;3.80;0.90;;;5.70;99.90;;;;;;4940626;29;20043;-96
2022/04/01 11:59:40;;;;;;;4.65;1.40;;;6.20;99.90;;;;;;4936128;28;20055;-96
2022/04/01 12:02:17;;;;;;;11.82;1.35;;;6.20;99.90;;;;;;4935983;28;20082;-95
2022/04/01 12:05:12;;;;;;;3.85;1.23;;;6.10;99.90;;;;;;4939646;28;20117;-95
2022/04/01 12:10:58;;;;;;;4.43;1.20;;;7.00;99.90;;;;;;4946290;28;20047;-96
2022/04/01 12:13:54;;;;;;;4.18;1.30;;;5.30;99.90;;;;;;4936553;29;20527;-95
2022/04/01 12:16:49;;;;;;;4.60;1.42;;;6.40;99.90;;;;;;4936803;28;20101;-94
2022/04/01 12:19:32;;;;;;;3.47;1.58;;;5.80;99.90;;;;;;4938869;28;20046;-95
2022/04/01 12:22:03;;;;;;;5.43;1.33;;;5.50;99.90;;;;;;4922884;28;20070;-94
2022/04/01 12:24:51;;;;;;;4.28;1.38;;;5.80;99.90;;;;;;4937384;28;20055;-94
2022/04/01 12:27:24;;;;;;;4.95;1.60;;;5.90;99.90;;;;;;4935272;28;20343;-95
2022/04/01 12:30:11;;;;;;;4.82;1.40;;;7.10;99.90;;;;;;4933320;28;20055;-95
2022/04/01 12:32:57;;;;;;;4.88;1.50;;;4.70;99.90;;;;;;4936754;28;20054;-94
2022/04/01 12:36:01;;;;;;;8.90;1.70;;;6.40;99.90;;;;;;4922086;28;20050;-95
2022/04/01 12:38:38;;;;;;;9.00;1.85;;;5.50;99.90;;;;;;4916585;28;20075;-92
2022/04/01 12:41:44;;;;;;;4.05;1.70;;;5.40;99.90;;;;;;4922031;29;20483;-94
2022/04/01 12:44:33;;;;;;;4.75;1.80;;;6.70;99.90;;;;;;4939271;28;20093;-95
2022/04/01 12:47:30;;;;;;;7.97;1.55;;;6.40;99.90;;;;;;4946991;29;20059;-95
2022/04/01 12:50:06;;;;;;;10.90;2.10;;;5.10;99.90;;;;;;4928635;28;20067;-95
2022/04/01 12:52:40;;;;;;;5.95;1.33;;;5.60;99.90;;;;;;4939407;28;20054;-95
2022/04/01 12:55:31;;;;;;;5.68;1.33;;;5.30;99.90;;;;;;4947091;28;20396;-95
2022/04/01 12:58:12;;;;;;;3.95;1.27;;;5.40;99.90;;;;;;4937223;28;20074;-94
2022/04/01 13:00:52;;;;;;;5.20;1.60;;;5.70;99.90;;;;;;4938403;28;20574;-94
2022/04/01 13:03:49;;;;;;;9.75;1.52;;;5.70;99.90;;;;;;4937684;28;20038;-95
2022/04/01 13:06:40;;;;;;;4.90;1.38;;;6.50;99.90;;;;;;4925779;28;20082;-94
2022/04/01 13:09:36;;;;;;;;;;;;;;;;;;;;;
2022/04/01 13:12:34;;;;;;;7.03;1.40;;;5.50;99.90;;;;;;4953849;28;20130;-95
2022/04/01 13:15:09;;;;;;;3.38;1.20;;;6.30;99.90;;;;;;4957247;23;20146;-83
2022/04/01 13:17:41;;;;;;;7.95;1.20;;;5.60;99.90;;;;;;4933349;29;20051;-83
2022/04/01 13:20:10;;;;;;;3.72;1.13;;;5.70;99.90;;;;;;4931560;29;20134;-83
2022/04/01 13:22:37;;;;;;;4.80;1.20;;;5.80;99.90;;;;;;4933348;29;20059;-82
2022/04/01 13:25:05;;;;;;;4.60;1.10;;;5.70;99.90;;;;;;4931934;29;20047;-83
2022/04/01 13:27:31;;;;;;;4.82;1.30;;;5.60;99.90;;;;;;4932624;29;20054;-83
2022/04/01 13:29:58;;;;;;;5.15;1.30;;;6.00;99.90;;;;;;4932077;29;20051;-83
2022/04/01 13:32:25;;;;;;;2.78;1.00;;;5.50;99.90;;;;;;4916759;29;20043;-82
2022/04/01 13:34:51;;;;;;;4.32;1.33;;;5.40;99.90;;;;;;4931879;29;20040;-83
2022/04/01 13:37:17;;;;;;;3.35;1.10;;;5.50;99.90;;;;;;4916363;29;20134;-83
2022/04/01 13:39:43;;;;;;;5.75;1.15;;;5.50;99.90;;;;;;4931709;29;20138;-82
2022/04/01 13:42:09;;;;;;;4.78;1.38;;;5.70;99.90;;;;;;4916611;29;20111;-82
2022/04/01 13:44:35;;;;;;;5.88;1.13;;;5.40;99.90;;;;;;4963563;28;20518;-82
2022/04/01 13:47:02;;;;;;;6.05;1.23;;;5.40;99.90;;;;;;4932125;29;20083;-82
2022/04/01 13:49:28;;;;;;;4.57;1.35;;;5.40;99.90;;;;;;4931598;29;20550;-82
2022/04/01 13:51:53;;;;;;;3.72;1.00;;;5.40;99.90;;;;;;4932824;29;20051;-82
2022/04/01 13:54:20;;;;;;;4.28;1.30;;;5.30;99.90;;;;;;4914320;29;20055;-83
2022/04/01 13:56:45;;;;;;;7.28;1.40;;;5.40;99.90;;;;;;4933131;29;20043;-81
2022/04/01 13:59:12;;;;;;;6.90;1.58;;;5.50;99.90;;;;;;4914811;29;20404;-81
2022/04/01 14:01:39;;;;;;;3.92;1.80;;;5.50;99.90;;;;;;4932170;29;20054;-82
2022/04/01 14:04:05;;;;;;;7.82;1.70;;;5.50;99.90;;;;;;4932093;29;20461;-82